createdAt,value
2024-04-22T00:01:49.818Z,15.19
2024-04-22T00:04:19.690Z,15.27
2024-04-22T00:06:47.293Z,15.36
2024-04-22T00:09:17.473Z,15.33
2024-04-22T00:11:44.534Z,15.30
2024-04-22T00:14:14.928Z,15.23
2024-04-22T00:16:42.168Z,15.31
2024-04-22T00:19:14.905Z,15.44
2024-04-22T00:21:42.072Z,15.63
2024-04-22T00:24:11.809Z,15.59
2024-04-22T00:26:39.832Z,15.55
2024-04-22T00:29:10.086Z,15.69
2024-04-22T00:31:37.361Z,15.73
2024-04-22T00:34:07.231Z,15.45
2024-04-22T00:36:37.097Z,15.79
2024-04-22T00:39:06.896Z,15.58
2024-04-22T00:41:35.227Z,15.69
2024-04-22T00:44:05.070Z,15.83
2024-04-22T00:46:32.362Z,16.00
2024-04-22T00:49:02.408Z,15.77
2024-04-22T00:51:29.700Z,15.80
2024-04-22T00:54:03.150Z,16.05
2024-04-22T00:56:30.359Z,16.17
2024-04-22T00:59:01.785Z,16.09
2024-04-22T01:01:29.094Z,15.92
2024-04-22T01:03:59.152Z,16.10
2024-04-22T01:06:26.358Z,16.12
2024-04-22T01:08:56.117Z,16.09
2024-04-22T01:11:26.047Z,16.20
2024-04-22T01:13:55.861Z,16.31
2024-04-22T01:16:22.922Z,16.23
2024-04-22T01:18:52.630Z,16.42
2024-04-22T01:21:25.589Z,16.33
2024-04-22T01:23:55.917Z,16.47
2024-04-22T01:26:23.766Z,16.60
2024-04-22T01:28:53.578Z,16.53
2024-04-22T01:31:20.754Z,16.46
2024-04-22T01:33:50.736Z,16.75
2024-04-22T01:36:17.803Z,16.55
2024-04-22T01:38:51.284Z,16.69
2024-04-22T01:41:18.397Z,16.56
2024-04-22T01:43:48.400Z,16.68
2024-04-22T01:46:15.695Z,16.59
2024-04-22T01:48:45.515Z,16.85
2024-04-22T01:51:12.717Z,16.65
2024-04-22T01:53:42.594Z,16.59
2024-04-22T01:56:12.384Z,16.67
2024-04-22T01:58:42.179Z,16.87
2024-04-22T02:01:09.796Z,16.84
2024-04-22T02:03:39.697Z,16.75
2024-04-22T02:06:06.826Z,16.83
2024-04-22T02:08:36.585Z,16.70
2024-04-22T02:11:04.049Z,16.85
2024-04-22T02:13:36.682Z,16.99
2024-04-22T02:16:04.102Z,16.76
2024-04-22T02:18:34.535Z,16.56
2024-04-22T02:21:01.756Z,16.97
2024-04-22T02:23:31.520Z,16.76
2024-04-22T02:25:58.587Z,16.85
2024-04-22T02:28:28.360Z,16.89
2024-04-22T02:30:58.294Z,16.77
2024-04-22T02:33:28.182Z,16.95
2024-04-22T02:35:55.648Z,16.89
2024-04-22T02:38:25.357Z,16.92
2024-04-22T02:40:52.456Z,16.82
2024-04-22T02:43:22.217Z,16.81
2024-04-22T02:45:49.371Z,16.80
2024-04-22T02:48:21.902Z,17.12
2024-04-22T02:50:49.067Z,16.87
2024-04-22T02:53:18.881Z,16.86
2024-04-22T02:55:46.499Z,17.31
2024-04-22T02:58:16.354Z,17.13
2024-04-22T03:00:48.007Z,17.22
2024-04-22T03:03:18.026Z,17.35
2024-04-22T03:05:47.772Z,17.32
2024-04-22T03:08:17.570Z,17.77
2024-04-22T03:10:44.666Z,18.00
2024-04-22T03:13:14.533Z,18.01
2024-04-22T03:15:41.655Z,17.94
2024-04-22T03:18:11.786Z,18.08
2024-04-22T03:20:38.922Z,18.02
2024-04-22T03:23:11.351Z,17.70
2024-04-22T03:25:38.587Z,17.67
2024-04-22T03:28:08.899Z,17.52
2024-04-22T03:30:36.077Z,17.49
2024-04-22T03:33:05.883Z,17.18
2024-04-22T03:35:33.479Z,17.41
2024-04-22T03:38:03.197Z,17.19
2024-04-22T03:40:35.769Z,17.19
2024-04-22T03:43:05.680Z,17.34
2024-04-22T03:45:35.539Z,17.19
2024-04-22T03:48:21.498Z,17.41
2024-04-22T03:50:51.412Z,17.28
2024-04-22T03:53:21.078Z,17.46
2024-04-22T03:55:53.511Z,17.48
2024-04-22T03:58:23.221Z,17.31
2024-04-22T04:00:50.399Z,17.26
2024-04-22T04:03:20.240Z,17.12
2024-04-22T04:05:47.296Z,17.29
2024-04-22T04:08:16.982Z,17.11
2024-04-22T04:10:44.980Z,17.12
2024-04-22T04:13:17.547Z,16.97
2024-04-22T04:15:44.570Z,17.08
2024-04-22T04:18:14.442Z,17.11
2024-04-22T04:20:41.547Z,17.13
2024-04-22T04:23:11.298Z,16.92
2024-04-22T04:25:38.617Z,17.09
2024-04-22T04:28:08.611Z,17.08
2024-04-22T04:30:38.415Z,17.15
2024-04-22T04:33:08.603Z,17.15
2024-04-22T04:35:35.841Z,17.05
2024-04-22T04:38:05.561Z,17.09
2024-04-22T04:40:32.619Z,17.18
2024-04-22T04:43:02.423Z,17.02
2024-04-22T04:45:29.765Z,17.22
2024-04-22T04:48:02.347Z,17.18
2024-04-22T04:50:29.705Z,17.22
2024-04-22T04:52:59.507Z,17.50
2024-04-22T04:55:26.792Z,17.08
2024-04-22T04:57:56.558Z,17.24
2024-04-22T05:00:23.734Z,17.35
2024-04-22T05:02:53.582Z,17.55
2024-04-22T05:05:23.630Z,17.54
2024-04-22T05:07:54.378Z,17.71
2024-04-22T05:10:24.609Z,17.74
2024-04-22T05:12:55.822Z,17.41
2024-04-22T05:15:23.424Z,17.75
2024-04-22T05:17:53.705Z,17.78
2024-04-22T05:20:23.595Z,18.01
2024-04-22T05:22:53.474Z,17.81
2024-04-22T05:25:20.625Z,17.79
2024-04-22T05:27:50.485Z,17.64
2024-04-22T05:30:17.731Z,18.18
2024-04-22T05:32:47.581Z,17.69
2024-04-22T05:35:33.374Z,17.78
2024-04-22T05:38:06.095Z,17.62
2024-04-22T05:40:35.886Z,17.68
2024-04-22T05:43:05.730Z,17.86
2024-04-22T05:45:35.649Z,17.76
2024-04-22T05:48:05.511Z,17.89
2024-04-22T05:50:35.265Z,17.88
2024-04-22T05:53:08.099Z,18.00
2024-04-22T05:55:38.398Z,17.93
2024-04-22T05:58:05.616Z,18.01
2024-04-22T06:00:35.371Z,18.30
2024-04-22T06:03:02.552Z,18.21
2024-04-22T06:05:32.400Z,18.18
2024-04-22T06:07:59.481Z,18.09
2024-04-22T06:10:34.127Z,17.84
2024-04-22T06:13:02.036Z,18.13
2024-04-22T06:15:31.779Z,17.99
2024-04-22T06:17:58.964Z,18.22
2024-04-22T06:20:28.877Z,18.11
2024-04-22T06:22:56.130Z,18.04
2024-04-22T06:25:25.991Z,17.98
2024-04-22T06:27:55.767Z,17.89
2024-04-22T06:30:25.528Z,17.69
2024-04-22T06:32:52.883Z,17.33
2024-04-22T06:35:23.575Z,17.60
2024-04-22T06:37:50.710Z,17.57
2024-04-22T06:40:20.651Z,17.45
2024-04-22T06:42:47.780Z,17.35
2024-04-22T06:45:20.326Z,17.23
2024-04-22T06:47:47.457Z,17.38
2024-04-22T06:50:17.503Z,17.41
2024-04-22T06:52:44.743Z,17.36
2024-04-22T06:55:14.721Z,17.36
2024-04-22T06:57:41.799Z,17.25
2024-04-22T07:00:11.891Z,17.34
2024-04-22T07:02:41.670Z,17.22
2024-04-22T07:05:11.616Z,17.19
2024-04-22T07:07:38.880Z,17.28
2024-04-22T07:10:09.054Z,17.47
2024-04-22T07:12:36.207Z,17.32
2024-04-22T07:15:06.021Z,17.19
2024-04-22T07:17:35.476Z,17.25
2024-04-22T07:20:09.268Z,17.30
2024-04-22T07:22:39.895Z,17.30
2024-04-22T07:25:10.056Z,17.25
2024-04-22T07:27:37.631Z,17.24
2024-04-22T07:30:08.121Z,17.51
2024-04-22T07:32:36.163Z,17.37
2024-04-22T07:35:09.599Z,17.39
2024-04-22T07:37:38.418Z,17.27
2024-04-22T07:40:14.905Z,17.57
2024-04-22T07:42:42.174Z,17.30
2024-04-22T07:45:12.432Z,17.24
2024-04-22T07:47:41.202Z,17.42
2024-04-22T07:50:14.813Z,17.35
2024-04-22T07:52:42.739Z,17.24
2024-04-22T07:55:14.465Z,17.26
2024-04-22T07:57:42.776Z,17.39
2024-04-22T08:00:13.474Z,17.27
2024-04-22T08:02:41.758Z,17.41
2024-04-22T08:05:15.393Z,17.36
2024-04-22T08:07:42.863Z,17.22
2024-04-22T08:10:12.843Z,17.38
2024-04-22T08:12:40.270Z,17.52
2024-04-22T08:15:10.213Z,17.44
2024-04-22T08:17:37.693Z,17.43
2024-04-22T08:20:08.019Z,17.61
2024-04-22T08:22:37.965Z,17.62
2024-04-22T08:25:08.803Z,17.66
2024-04-22T08:27:35.915Z,17.72
2024-04-22T08:30:06.539Z,17.69
2024-04-22T08:32:34.025Z,17.55
2024-04-22T08:35:05.099Z,17.33
2024-04-22T08:37:32.295Z,17.77
2024-04-22T08:40:04.765Z,17.31
2024-04-22T08:42:32.085Z,17.07
2024-04-22T08:45:01.923Z,17.24
2024-04-22T08:47:29.219Z,17.22
2024-04-22T08:49:59.125Z,17.41
2024-04-22T08:52:36.575Z,17.34
2024-04-22T08:55:10.538Z,17.27
2024-04-22T08:57:40.403Z,17.29
2024-04-22T09:00:10.952Z,17.36
2024-04-22T09:02:40.583Z,17.53
2024-04-22T09:05:12.073Z,17.49
2024-04-22T09:07:39.944Z,17.77
2024-04-22T09:10:35.716Z,17.58
2024-04-22T09:13:02.624Z,17.41
2024-04-22T09:15:32.972Z,17.65
2024-04-22T09:18:02.812Z,17.86
2024-04-22T09:20:35.817Z,17.82
2024-04-22T09:23:03.262Z,17.95
2024-04-22T09:25:36.312Z,18.04
2024-04-22T09:28:04.557Z,18.31
2024-04-22T09:30:42.399Z,18.55
2024-04-22T09:33:10.663Z,18.17
2024-04-22T09:35:42.800Z,18.32
2024-04-22T09:38:10.678Z,18.08
2024-04-22T09:40:44.136Z,17.87
2024-04-22T09:43:13.108Z,17.77
2024-04-22T09:45:43.266Z,17.71
2024-04-22T09:48:11.933Z,17.76
2024-04-22T09:50:42.214Z,17.57
2024-04-22T09:53:10.779Z,17.92
2024-04-22T09:55:45.157Z,18.09
2024-04-22T09:58:13.693Z,18.95
2024-04-22T10:00:44.816Z,18.76
2024-04-22T10:03:12.211Z,18.58
2024-04-22T10:05:43.257Z,18.52
2024-04-22T10:08:11.609Z,18.37
2024-04-22T10:10:47.113Z,18.79
2024-04-22T10:13:14.626Z,19.46
2024-04-22T10:15:44.568Z,19.88
2024-04-22T10:18:12.296Z,20.07
2024-04-22T10:20:43.317Z,20.15
2024-04-22T10:23:13.483Z,20.28
2024-04-22T10:25:43.380Z,19.90
2024-04-22T10:28:13.493Z,19.74
2024-04-22T10:30:43.742Z,19.44
2024-04-22T10:33:13.779Z,19.90
2024-04-22T10:35:41.010Z,20.07
2024-04-22T10:38:10.870Z,20.10
2024-04-22T10:40:38.281Z,20.09
2024-04-22T10:43:08.292Z,20.17
2024-04-22T10:45:39.791Z,20.88
2024-04-22T10:48:17.178Z,21.15
2024-04-22T10:50:48.212Z,20.70
2024-04-22T10:53:18.129Z,20.83
2024-04-22T10:55:45.303Z,20.25
2024-04-22T10:58:16.383Z,20.21
2024-04-22T11:00:49.394Z,20.09
2024-04-22T11:03:21.293Z,20.43
2024-04-22T11:05:49.524Z,20.96
2024-04-22T11:08:19.979Z,21.23
2024-04-22T11:10:47.594Z,21.43
2024-04-22T11:13:18.290Z,21.24
2024-04-22T11:15:48.781Z,21.27
2024-04-22T11:18:22.644Z,20.97
2024-04-22T11:20:50.081Z,20.63
2024-04-22T11:23:21.628Z,20.68
2024-04-22T11:25:49.754Z,20.58
2024-04-22T11:28:22.194Z,20.02
2024-04-22T11:30:52.240Z,19.68
2024-04-22T11:33:24.312Z,19.54
2024-04-22T11:35:51.794Z,19.46
2024-04-22T11:38:22.041Z,19.39
2024-04-22T11:40:49.335Z,19.12
2024-04-22T11:43:19.169Z,19.13
2024-04-22T11:45:46.325Z,19.12
2024-04-22T11:48:19.234Z,19.02
2024-04-22T11:50:46.724Z,18.87
2024-04-22T11:53:23.573Z,19.27
2024-04-22T11:55:53.493Z,19.08
2024-04-22T11:58:25.758Z,18.88
2024-04-22T12:00:53.120Z,18.94
2024-04-22T12:03:25.943Z,18.99
2024-04-22T12:05:53.978Z,19.13
2024-04-22T12:08:23.849Z,19.32
2024-04-22T12:10:51.648Z,19.35
2024-04-22T12:13:22.550Z,19.10
2024-04-22T12:15:49.733Z,19.21
2024-04-22T12:18:19.544Z,19.18
2024-04-22T12:20:49.824Z,19.40
2024-04-22T12:23:19.734Z,19.41
2024-04-22T12:25:46.842Z,19.66
2024-04-22T12:28:21.927Z,19.38
2024-04-22T12:30:52.709Z,19.22
2024-04-22T12:33:23.013Z,19.08
2024-04-22T12:35:52.937Z,18.73
2024-04-22T12:38:22.754Z,18.53
2024-04-22T12:40:50.173Z,18.43
2024-04-22T12:43:20.305Z,18.02
2024-04-22T12:45:47.522Z,17.92
2024-04-22T12:48:33.470Z,18.03
2024-04-22T12:51:07.089Z,18.12
2024-04-22T12:53:37.019Z,17.97
2024-04-22T12:56:07.193Z,17.54
2024-04-22T12:58:39.048Z,17.31
2024-04-22T13:01:09.146Z,17.27
2024-04-22T13:03:39.143Z,17.25
2024-04-22T13:06:11.963Z,17.31
2024-04-22T13:08:41.780Z,18.09
2024-04-22T13:11:11.642Z,18.78
2024-04-22T13:13:41.606Z,19.26
2024-04-22T13:16:11.325Z,19.61
2024-04-22T13:18:38.450Z,19.77
2024-04-22T13:21:08.551Z,19.93
2024-04-22T13:23:38.468Z,20.14
2024-04-22T13:26:08.381Z,19.65
2024-04-22T13:28:35.735Z,19.96
2024-04-22T13:31:05.940Z,20.19
2024-04-22T13:33:33.815Z,20.31
2024-04-22T13:36:04.184Z,20.08
2024-04-22T13:38:31.310Z,19.76
2024-04-22T13:41:03.741Z,19.70
2024-04-22T13:43:31.120Z,19.60
2024-04-22T13:46:00.867Z,19.54
2024-04-22T13:48:28.114Z,19.39
2024-04-22T13:50:58.303Z,18.57
2024-04-22T13:53:31.580Z,18.18
2024-04-22T13:56:04.872Z,18.14
2024-04-22T13:58:31.977Z,18.17
2024-04-22T14:01:01.878Z,18.34
2024-04-22T14:03:29.213Z,18.52
2024-04-22T14:05:59.300Z,18.76
2024-04-22T14:08:26.946Z,19.01
2024-04-22T14:10:56.872Z,19.28
2024-04-22T14:13:29.368Z,18.87
2024-04-22T14:15:56.511Z,18.73
2024-04-22T14:18:26.426Z,18.71
2024-04-22T14:20:53.810Z,18.67
2024-04-22T14:23:23.728Z,18.45
2024-04-22T14:25:53.200Z,18.44
2024-04-22T14:28:23.351Z,18.00
2024-04-22T14:30:53.186Z,18.14
2024-04-22T14:33:23.936Z,18.89
2024-04-22T14:35:51.929Z,19.36
2024-04-22T14:38:23.147Z,19.48
2024-04-22T14:40:52.517Z,19.86
2024-04-22T14:43:22.816Z,19.75
2024-04-22T14:45:52.687Z,19.61
2024-04-22T14:48:22.755Z,19.49
2024-04-22T14:50:53.004Z,19.42
2024-04-22T14:53:22.980Z,19.49
2024-04-22T14:55:50.436Z,19.72
2024-04-22T14:58:20.500Z,19.97
2024-04-22T15:00:48.757Z,20.34
2024-04-22T15:03:21.436Z,20.58
2024-04-22T15:05:48.766Z,20.80
2024-04-22T15:08:18.601Z,20.60
2024-04-22T15:10:49.016Z,20.72
2024-04-22T15:13:18.948Z,20.99
2024-04-22T15:15:46.221Z,20.63
2024-04-22T15:18:16.084Z,20.64
2024-04-22T15:20:45.909Z,20.96
2024-04-22T15:23:15.667Z,21.44
2024-04-22T15:25:42.764Z,21.87
2024-04-22T15:28:13.998Z,21.82
2024-04-22T15:30:41.060Z,21.96
2024-04-22T15:33:11.157Z,22.18
2024-04-22T15:35:38.390Z,21.98
2024-04-22T15:38:11.013Z,22.06
2024-04-22T15:40:38.587Z,22.08
2024-04-22T15:43:08.816Z,21.90
2024-04-22T15:45:35.987Z,21.52
2024-04-22T15:48:07.625Z,21.29
2024-04-22T15:50:38.252Z,21.20
2024-04-22T15:53:12.564Z,21.45
2024-04-22T15:55:44.285Z,21.38
2024-04-22T15:58:12.709Z,21.14
2024-04-22T16:00:42.666Z,21.13
2024-04-22T16:03:09.789Z,21.31
2024-04-22T16:05:39.589Z,21.21
2024-04-22T16:08:09.544Z,21.56
2024-04-22T16:10:40.240Z,21.44
2024-04-22T16:13:07.348Z,21.61
2024-04-22T16:15:37.197Z,21.70
2024-04-22T16:18:04.714Z,21.62
2024-04-22T16:20:34.616Z,21.89
2024-04-22T16:23:04.205Z,21.82
2024-04-22T16:25:38.366Z,21.66
2024-04-22T16:28:05.921Z,21.63
2024-04-22T16:30:35.647Z,21.51
2024-04-22T16:33:02.984Z,21.56
2024-04-22T16:35:33.271Z,21.29
2024-04-22T16:38:01.023Z,21.28
2024-04-22T16:40:30.805Z,21.42
2024-04-22T16:43:00.630Z,21.49
2024-04-22T16:45:30.900Z,21.40
2024-04-22T16:48:01.720Z,21.59
2024-04-22T16:50:31.714Z,21.23
2024-04-22T16:52:59.982Z,21.35
2024-04-22T16:55:29.816Z,21.22
2024-04-22T16:57:56.961Z,21.30
2024-04-22T17:00:29.994Z,21.27
2024-04-22T17:02:57.065Z,21.44
2024-04-22T17:05:27.850Z,21.33
2024-04-22T17:07:55.027Z,21.24
2024-04-22T17:10:24.956Z,21.28
2024-04-22T17:12:56.188Z,21.29
2024-04-22T17:15:29.688Z,21.51
2024-04-22T17:17:56.857Z,21.79
2024-04-22T17:20:26.719Z,21.95
2024-04-22T17:22:53.889Z,22.23
2024-04-22T17:25:23.666Z,22.29
2024-04-22T17:27:51.221Z,22.41
2024-04-22T17:30:21.083Z,22.42
2024-04-22T17:32:50.990Z,22.47
2024-04-22T17:35:20.785Z,22.56
2024-04-22T17:37:48.064Z,22.76
2024-04-22T17:40:20.263Z,22.79
2024-04-22T17:42:47.383Z,22.62
2024-04-22T17:45:17.215Z,22.63
2024-04-22T17:47:44.377Z,22.47
2024-04-22T17:50:16.942Z,22.58
2024-04-22T17:52:44.229Z,22.50
2024-04-22T17:55:13.981Z,22.48
2024-04-22T17:57:41.123Z,22.56
2024-04-22T18:00:15.124Z,22.41
2024-04-22T18:02:44.047Z,22.54
2024-04-22T18:05:16.544Z,22.35
2024-04-22T18:07:43.725Z,22.66
2024-04-22T18:10:13.507Z,22.65
2024-04-22T18:12:42.020Z,22.38
2024-04-22T18:15:11.960Z,22.35
2024-04-22T18:17:39.270Z,22.24
2024-04-22T18:20:12.479Z,22.18
2024-04-22T18:22:47.063Z,22.19
2024-04-22T18:25:22.729Z,22.20
2024-04-22T18:27:51.551Z,22.05
2024-04-22T18:30:21.331Z,21.93
2024-04-22T18:32:48.538Z,22.12
2024-04-22T18:35:18.375Z,22.15
2024-04-22T18:37:48.271Z,22.24
2024-04-22T18:40:18.130Z,22.27
2024-04-22T18:42:45.329Z,22.12
2024-04-22T18:45:15.087Z,22.19
2024-04-22T18:47:42.283Z,21.99
2024-04-22T18:50:12.185Z,22.12
2024-04-22T18:52:39.251Z,22.16
2024-04-22T18:55:12.087Z,22.12
2024-04-22T18:57:39.119Z,22.18
2024-04-22T19:00:11.494Z,22.11
2024-04-22T19:02:38.770Z,22.17
2024-04-22T19:05:08.670Z,22.25
2024-04-22T19:07:37.211Z,22.33
2024-04-22T19:10:12.323Z,22.59
2024-04-22T19:12:39.470Z,22.82
2024-04-22T19:15:09.536Z,22.79
2024-04-22T19:17:36.788Z,22.73
2024-04-22T19:20:07.853Z,22.42
2024-04-22T19:22:34.970Z,22.80
2024-04-22T19:25:04.747Z,22.79
2024-04-22T19:27:34.544Z,23.08
2024-04-22T19:30:04.266Z,23.00
2024-04-22T19:32:31.357Z,22.89
2024-04-22T19:35:01.262Z,22.75
2024-04-22T19:37:28.453Z,22.75
2024-04-22T19:39:58.207Z,22.39
2024-04-22T19:42:25.319Z,22.60
2024-04-22T19:44:57.754Z,22.62
2024-04-22T19:47:25.071Z,22.38
2024-04-22T19:49:55.052Z,22.44
2024-04-22T19:52:22.294Z,22.53
2024-04-22T19:54:55.162Z,22.47
2024-04-22T19:57:23.350Z,22.59
2024-04-22T19:59:53.549Z,22.57
2024-04-22T20:02:30.582Z,22.62
2024-04-22T20:05:00.667Z,22.91
2024-04-22T20:07:28.162Z,22.98
2024-04-22T20:09:57.977Z,22.90
2024-04-22T20:12:25.028Z,22.67
2024-04-22T20:14:55.525Z,22.92
2024-04-22T20:17:42.980Z,22.94
2024-04-22T20:20:13.044Z,22.80
2024-04-22T20:22:40.177Z,23.02
2024-04-22T20:25:10.043Z,22.95
2024-04-22T20:27:37.276Z,22.73
2024-04-22T20:30:07.253Z,22.88
2024-04-22T20:32:37.156Z,22.66
2024-04-22T20:35:07.779Z,22.88
2024-04-22T20:37:35.119Z,22.72
2024-04-22T20:40:05.171Z,22.87
2024-04-22T20:42:32.395Z,22.73
2024-04-22T20:45:02.158Z,22.32
2024-04-22T20:47:29.350Z,22.15
2024-04-22T20:50:01.767Z,22.11
2024-04-22T20:52:28.955Z,22.09
2024-04-22T20:54:58.647Z,21.98
2024-04-22T20:57:26.228Z,22.20
2024-04-22T20:59:55.977Z,22.31
2024-04-22T21:02:23.045Z,22.29
2024-04-22T21:04:52.826Z,22.27
2024-04-22T21:07:22.652Z,22.24
2024-04-22T21:09:52.375Z,22.38
2024-04-22T21:12:19.665Z,22.35
2024-04-22T21:14:49.488Z,22.50
2024-04-22T21:17:16.653Z,22.66
2024-04-22T21:19:46.496Z,22.55
2024-04-22T21:22:13.518Z,22.83
2024-04-22T21:24:45.889Z,23.05
2024-04-22T21:27:12.905Z,23.09
2024-04-22T21:29:42.620Z,22.97
2024-04-22T21:32:09.707Z,23.11
2024-04-22T21:34:39.592Z,23.00
2024-04-22T21:37:07.038Z,23.09
2024-04-22T21:39:36.973Z,22.96
2024-04-22T21:42:06.910Z,22.97
2024-04-22T21:44:36.643Z,22.89
2024-04-22T21:47:03.814Z,22.83
2024-04-22T21:49:33.602Z,22.71
2024-04-22T21:52:00.721Z,22.75
2024-04-22T21:54:30.463Z,22.79
2024-04-22T21:57:16.091Z,22.88
2024-04-22T22:00:06.053Z,22.83
2024-04-22T22:02:54.031Z,22.87
2024-04-22T22:05:42.351Z,23.05
2024-04-22T22:08:10.512Z,22.75
2024-04-22T22:10:44.604Z,22.83
2024-04-22T22:13:11.896Z,22.84
2024-04-22T22:15:41.759Z,22.99
2024-04-22T22:18:09.345Z,22.82
2024-04-22T22:20:39.215Z,22.91
2024-04-22T22:23:06.479Z,23.29
2024-04-22T22:25:36.332Z,23.01
2024-04-22T22:28:06.555Z,22.85
2024-04-22T22:30:36.274Z,22.80
2024-04-22T22:33:03.449Z,22.71
2024-04-22T22:35:33.178Z,22.73
2024-04-22T22:38:00.355Z,22.85
2024-04-22T22:40:30.307Z,22.64
2024-04-22T22:43:00.491Z,22.78
2024-04-22T22:45:32.990Z,22.59
2024-04-22T22:48:00.318Z,22.72
2024-04-22T22:50:30.146Z,22.47
2024-04-22T22:52:57.374Z,22.49
2024-04-22T22:55:27.235Z,22.61
2024-04-22T22:57:54.275Z,22.87
2024-04-22T23:00:24.110Z,22.76
2024-04-22T23:02:54.094Z,22.64
2024-04-22T23:05:23.919Z,22.70
2024-04-22T23:07:51.012Z,22.80
2024-04-22T23:10:20.816Z,22.63
2024-04-22T23:12:47.911Z,22.52
2024-04-22T23:15:17.853Z,22.60
2024-04-22T23:17:45.021Z,22.50
2024-04-22T23:20:17.552Z,22.46
2024-04-22T23:22:44.648Z,22.34
2024-04-22T23:25:14.505Z,22.48
2024-04-22T23:27:42.370Z,22.55
2024-04-22T23:30:12.599Z,22.46
2024-04-22T23:32:39.792Z,22.35
2024-04-22T23:35:09.761Z,22.30
2024-04-22T23:37:39.549Z,22.21
2024-04-22T23:40:09.788Z,22.30
2024-04-22T23:42:36.977Z,22.63
2024-04-22T23:45:07.049Z,22.63
2024-04-22T23:47:34.853Z,22.55
2024-04-22T23:50:23.412Z,22.55
2024-04-22T23:52:53.263Z,22.69
2024-04-22T23:55:23.174Z,22.24
2024-04-22T23:57:50.369Z,22.44
